Time;durP1;ratioP1;P1;durP2;ratioP2;P2;SDS_P1;SDS_P2;PMS_P1;PMS_P2;Temp;Humidity;BMP_temperature;BMP_pressure;BME280_temperature;BME280_humidity;BME280_pressure;Samples;Min_cycle;Max_cycle;Signal;HPM_P1;HPM_P2
2023/06/08 00:00:53;;;;;;;5.60;3.15;;;;;;;17.33;91.70;64791.41;5091160;28;20632;-59
2023/06/08 00:03:19;;;;;;;5.75;3.05;;;;;;;17.55;90.16;64813.13;5091111;28;20204;-57
2023/06/08 00:05:50;;;;;;;4.32;3.20;;;;;;;17.58;90.94;64821.00;5091071;28;20682;-58
2023/06/08 00:08:15;;;;;;;4.32;2.85;;;;;;;17.46;92.45;64805.19;5091270;28;20208;-57
2023/06/08 00:10:45;;;;;;;5.18;3.17;;;;;;;17.56;91.89;64816.25;5090842;28;20593;-57
2023/06/08 00:13:12;;;;;;;3.90;3.13;;;;;;;17.43;92.75;64801.91;5090889;28;20204;-57
2023/06/08 00:15:39;;;;;;;4.32;3.13;;;;;;;17.47;93.49;64806.31;5091073;28;20253;-56
2023/06/08 00:18:08;;;;;;;4.93;3.35;;;;;;;17.43;91.88;64805.00;5090837;28;20666;-56
2023/06/08 00:20:34;;;;;;;5.22;2.75;;;;;;;17.28;91.92;64785.38;5091054;28;20199;-58
2023/06/08 00:23:04;;;;;;;4.13;2.60;;;;;;;17.21;93.54;64778.19;5090841;28;20200;-57
2023/06/08 00:25:30;;;;;;;4.20;2.75;;;;;;;17.22;93.47;64778.75;5090993;28;20225;-58
2023/06/08 00:27:55;;;;;;;3.55;2.50;;;;;;;17.12;92.51;64770.28;5090840;28;20212;-59
2023/06/08 00:30:21;;;;;;;6.10;2.92;;;;;;;17.07;95.05;64762.78;5090590;28;20749;-57
2023/06/08 00:32:46;;;;;;;8.00;3.25;;;;;;;16.89;94.44;64742.41;5091021;28;20214;-61
2023/06/08 00:35:12;;;;;;;3.47;2.45;;;;;;;17.05;94.69;64760.03;5055893;28;20207;-60
2023/06/08 00:37:37;;;;;;;3.85;2.92;;;;;;;16.97;95.73;64748.69;5090783;28;20204;-59
2023/06/08 00:40:06;;;;;;;3.50;2.42;;;;;;;16.92;95.72;64743.16;5090607;28;20600;-60
2023/06/08 00:42:32;;;;;;;6.75;2.80;;;;;;;16.75;96.03;64730.63;5090416;28;20204;-61
2023/06/08 00:44:57;;;;;;;3.42;2.55;;;;;;;16.79;96.37;64729.41;5072700;28;20219;-62
2023/06/08 00:47:23;;;;;;;8.38;2.88;;;;;;;16.56;95.71;64709.69;5090399;28;20662;-61
2023/06/08 00:49:50;;;;;;;5.57;2.80;;;;;;;16.90;93.38;64740.97;5090375;28;20250;-60
2023/06/08 00:52:16;;;;;;;3.70;2.92;;;;;;;16.86;94.56;64739.09;5090690;28;20211;-58
2023/06/08 00:54:43;;;;;;;5.72;2.92;;;;;;;16.82;94.15;64732.72;5072294;28;20219;-56
2023/06/08 00:57:10;;;;;;;4.07;3.20;;;;;;;16.64;96.26;64713.41;5088825;28;20192;-57
2023/06/08 00:59:36;;;;;;;2.60;2.40;;;;;;;16.28;97.28;64676.31;5090346;28;20222;-57
2023/06/08 01:02:04;;;;;;;3.45;2.40;;;;;;;16.49;96.81;64699.47;5090362;28;20185;-61
2023/06/08 01:04:31;;;;;;;4.00;2.40;;;;;;;16.46;96.24;64693.03;5091199;28;20291;-56
2023/06/08 01:07:26;;;;;;;3.33;2.50;;;;;;;16.48;97.89;64700.34;5090109;28;20180;-56
2023/06/08 01:10:28;;;;;;;2.80;2.30;;;;;;;16.53;96.30;64706.41;5090182;28;20220;-56
2023/06/08 01:13:02;;;;;;;5.57;3.15;;;;;;;16.53;96.54;64703.31;5071992;28;20198;-56
2023/06/08 01:15:37;;;;;;;3.15;2.50;;;;;;;16.52;96.51;64702.22;5090051;28;20225;-56
2023/06/08 01:18:07;;;;;;;5.15;2.53;;;;;;;16.49;96.70;64698.91;5090354;28;20754;-56
2023/06/08 01:20:50;;;;;;;5.10;2.53;;;;;;;16.58;96.58;64711.38;5090230;28;20283;-57
2023/06/08 01:23:37;;;;;;;4.13;2.63;;;;;;;16.56;95.98;64709.69;5090144;28;20220;-56
2023/06/08 01:26:03;;;;;;;2.45;2.22;;;;;;;16.50;96.26;64702.56;5090151;28;20227;-58
2023/06/08 01:28:30;;;;;;;5.22;2.70;;;;;;;16.46;96.40;64696.13;5090092;28;20212;-59
2023/06/08 01:30:58;;;;;;;4.03;2.10;;;;;;;16.46;96.96;64695.59;5071854;28;20208;-60
2023/06/08 01:33:28;;;;;;;2.85;2.22;;;;;;;16.47;96.33;64694.69;5089819;28;20705;-61
2023/06/08 01:36:13;;;;;;;3.17;2.20;;;;;;;16.47;96.58;64701.78;5089976;28;20184;-60
2023/06/08 01:38:45;;;;;;;5.55;2.83;;;;;;;16.34;96.82;64685.47;5058439;28;20311;-60
2023/06/08 01:41:18;;;;;;;4.95;2.55;;;;;;;16.48;95.95;64698.31;5089928;28;20169;-60
2023/06/08 01:43:47;;;;;;;4.70;2.60;;;;;;;16.34;97.41;64682.91;5090093;28;20228;-61
2023/06/08 01:46:14;;;;;;;5.25;3.13;;;;;;;16.48;97.41;64698.31;5089964;28;20223;-60
2023/06/08 01:48:42;;;;;;;6.07;2.60;;;;;;;16.59;96.34;64713.00;5071329;28;20212;-57
2023/06/08 01:51:10;;;;;;;4.65;2.25;;;;;;;16.50;96.56;64700.03;5088978;28;20188;-57
2023/06/08 01:53:42;;;;;;;3.90;2.78;;;;;;;16.55;96.78;64705.50;5091716;28;20220;-59
2023/06/08 01:56:07;;;;;;;4.88;2.85;;;;;;;16.43;96.37;64692.84;5093082;28;20211;-58
2023/06/08 01:58:32;;;;;;;4.85;2.72;;;;;;;16.26;98.16;64674.13;5093432;28;20844;-57
2023/06/08 02:00:58;;;;;;;7.28;2.72;;;;;;;16.07;99.51;64652.66;5092951;28;20226;-57
2023/06/08 02:03:23;;;;;;;3.97;2.45;;;;;;;16.19;99.94;64668.97;5093308;28;20216;-57
2023/06/08 02:05:49;;;;;;;8.18;2.53;;;;;;;16.22;99.23;64669.19;5093034;28;20249;-57
2023/06/08 02:08:14;;;;;;;3.58;2.75;;;;;;;16.21;97.81;64668.06;5093155;28;20223;-57
2023/06/08 02:10:40;;;;;;;4.35;2.50;;;;;;;16.11;98.76;64660.16;5092846;28;20678;-57
2023/06/08 02:13:05;;;;;;;9.48;2.65;;;;;;;16.20;98.91;64666.97;5093075;28;20641;-57
2023/06/08 02:15:31;;;;;;;4.20;2.78;;;;;;;16.27;97.51;64674.66;5092825;28;20723;-58
2023/06/08 02:17:59;;;;;;;5.43;2.92;;;;;;;16.19;98.21;64671.50;5092730;28;20180;-58
2023/06/08 02:20:25;;;;;;;7.72;3.90;;;;;;;16.00;100.00;64645.50;5074707;28;20215;-56
2023/06/08 02:22:50;;;;;;;4.20;2.67;;;;;;;16.21;98.01;64668.06;5092725;28;20196;-57
2023/06/08 02:25:16;;;;;;;4.22;2.65;;;;;;;16.11;98.77;64660.16;5092854;28;20187;-57
2023/06/08 02:27:43;;;;;;;4.53;2.92;;;;;;;15.92;98.58;64639.25;5074786;28;20204;-58
2023/06/08 02:30:10;;;;;;;3.25;2.90;;;;;;;15.97;99.11;64642.22;5074519;28;20222;-58
2023/06/08 02:32:37;;;;;;;5.72;3.15;;;;;;;15.80;100.00;64623.50;5092613;28;20185;-55
2023/06/08 02:35:03;;;;;;;5.22;3.10;;;;;;;15.77;100.00;64620.19;5091431;28;20690;-57
2023/06/08 02:37:30;;;;;;;5.55;3.28;;;;;;;15.79;100.00;64625.50;5091443;28;20180;-59
2023/06/08 02:39:56;;;;;;;4.43;2.80;;;;;;;15.91;100.00;64638.16;5092236;28;20235;-57
2023/06/08 02:42:22;;;;;;;3.38;2.65;;;;;;;16.15;98.30;64661.47;5092256;28;20638;-57
2023/06/08 02:44:47;;;;;;;4.93;2.78;;;;;;;16.17;98.04;64663.66;5072742;28;20254;-57
2023/06/08 02:47:15;;;;;;;6.15;3.33;;;;;;;16.13;98.67;64659.81;5092479;28;20199;-59
2023/06/08 02:49:40;;;;;;;6.78;4.03;;;;;;;15.95;99.39;64640.56;5074086;28;20239;-60
2023/06/08 02:52:07;;;;;;;8.02;3.47;;;;;;;15.97;98.44;64642.22;5092454;28;20211;-56
2023/06/08 02:54:32;;;;;;;7.57;4.28;;;;;;;15.90;99.03;64637.03;5092251;28;20212;-58
2023/06/08 02:56:58;;;;;;;6.55;3.10;;;;;;;15.83;100.00;64627.34;5092278;28;20191;-58
2023/06/08 02:59:24;;;;;;;8.70;5.95;;;;;;;15.86;100.00;64630.66;5092118;28;20667;-58
2023/06/08 03:01:53;;;;;;;12.95;8.73;;;;;;;16.03;100.00;64650.78;5092203;28;20184;-58
2023/06/08 03:04:23;;;;;;;7.88;5.15;;;;;;;16.14;100.00;64663.44;5091752;28;20219;-59
2023/06/08 03:06:53;;;;;;;7.05;3.40;;;;;;;16.06;99.25;64652.09;5073923;28;20233;-57
2023/06/08 03:09:22;;;;;;;4.22;2.88;;;;;;;16.09;99.29;64652.88;5091811;28;20212;-56
2023/06/08 03:11:48;;;;;;;4.53;3.30;;;;;;;16.01;99.82;64646.06;5092124;28;20194;-57
2023/06/08 03:14:13;;;;;;;2.97;2.67;;;;;;;16.00;100.00;64648.03;5091821;28;20643;-58
2023/06/08 03:16:41;;;;;;;5.07;3.22;;;;;;;16.01;100.00;64648.59;5092046;28;20611;-58
2023/06/08 03:19:06;;;;;;;7.47;3.05;;;;;;;16.00;100.00;64648.03;5091883;28;20243;-57
2023/06/08 03:21:32;;;;;;;7.90;2.88;;;;;;;16.03;100.00;64648.25;5091979;28;20231;-56
2023/06/08 03:23:57;;;;;;;4.93;3.42;;;;;;;16.16;100.00;64665.13;5073695;28;20535;-57
2023/06/08 03:26:23;;;;;;;5.38;3.15;;;;;;;16.03;100.00;64646.25;5091821;28;20187;-58
2023/06/08 03:28:49;;;;;;;5.20;3.40;;;;;;;16.16;100.00;64663.09;5073288;28;20216;-60
2023/06/08 03:31:14;;;;;;;9.23;3.28;;;;;;;16.35;99.04;64681.47;5091493;28;20195;-58
2023/06/08 03:33:40;;;;;;;3.67;2.85;;;;;;;16.37;99.06;64686.22;5091423;28;20268;-57
2023/06/08 03:36:06;;;;;;;4.20;2.55;;;;;;;16.21;99.44;64668.63;5091800;28;20196;-56
2023/06/08 03:38:31;;;;;;;4.85;3.03;;;;;;;16.04;100.00;64652.44;5091673;28;20204;-57
2023/06/08 03:40:57;;;;;;;5.47;3.35;;;;;;;16.12;100.00;64658.69;5091590;28;20759;-56
2023/06/08 03:43:22;;;;;;;8.20;4.32;;;;;;;16.01;100.00;64648.59;5091446;28;20223;-58
2023/06/08 03:45:47;;;;;;;8.38;4.45;;;;;;;16.10;99.69;64659.03;5091371;28;20338;-58
2023/06/08 03:48:13;;;;;;;6.60;3.03;;;;;;;16.28;98.78;64678.84;5091557;28;20211;-58
2023/06/08 03:50:38;;;;;;;8.07;3.80;;;;;;;16.15;99.16;64662.00;5091240;28;20208;-58
2023/06/08 03:53:04;;;;;;;7.93;3.47;;;;;;;16.12;99.03;64658.69;5091379;28;20626;-59
2023/06/08 03:55:30;;;;;;;9.75;3.60;;;;;;;16.10;100.00;64656.50;5091164;28;20733;-57
2023/06/08 03:57:55;;;;;;;4.85;3.47;;;;;;;16.01;100.00;64646.59;5091207;28;20298;-57
2023/06/08 04:00:21;;;;;;;6.05;3.47;;;;;;;16.16;99.92;64660.03;5091075;28;20211;-57
2023/06/08 04:02:46;;;;;;;5.97;4.22;;;;;;;16.35;98.74;64686.00;5090928;28;20283;-57
2023/06/08 04:05:13;;;;;;;6.13;3.17;;;;;;;16.24;97.80;64673.91;5090893;28;20207;-57
2023/06/08 04:07:40;;;;;;;6.97;4.50;;;;;;;16.18;98.46;64665.31;5091149;28;20254;-58
2023/06/08 04:10:06;;;;;;;7.13;3.40;;;;;;;16.13;98.50;64656.72;5090987;28;20264;-57
2023/06/08 04:12:32;;;;;;;6.15;3.58;;;;;;;16.19;99.01;64671.50;5090856;28;20709;-57
2023/06/08 04:14:58;;;;;;;5.47;4.15;;;;;;;16.17;100.00;64666.75;5090612;28;20203;-58
2023/06/08 04:17:27;;;;;;;6.43;3.97;;;;;;;16.26;100.00;64673.56;5090489;28;20216;-56
2023/06/08 04:19:52;;;;;;;5.10;4.00;;;;;;;16.33;100.00;64683.81;5090691;28;20675;-58
2023/06/08 04:22:17;;;;;;;9.43;4.60;;;;;;;16.27;100.00;64677.75;5090653;28;20279;-58
2023/06/08 04:24:43;;;;;;;7.25;3.72;;;;;;;16.58;98.99;64709.34;5090737;28;20216;-58
2023/06/08 04:27:08;;;;;;;5.22;3.80;;;;;;;16.63;98.81;64714.31;5090774;28;20685;-58
2023/06/08 04:29:34;;;;;;;5.47;3.90;;;;;;;16.59;99.22;64709.91;5090383;28;20709;-58
2023/06/08 04:32:00;;;;;;;9.68;4.30;;;;;;;16.57;99.08;64710.81;5090640;28;20190;-57
2023/06/08 04:34:25;;;;;;;4.70;3.38;;;;;;;16.63;98.99;64717.41;5090255;28;20236;-57
2023/06/08 04:36:51;;;;;;;6.40;4.25;;;;;;;16.78;98.23;64731.41;5072393;28;20211;-58
2023/06/08 04:39:16;;;;;;;8.55;3.65;;;;;;;16.90;97.27;64744.06;5090747;28;20208;-58
2023/06/08 04:41:45;;;;;;;7.72;4.55;;;;;;;17.20;100.00;64777.09;5090697;28;20666;-57
2023/06/08 04:44:13;;;;;;;9.68;4.65;;;;;;;17.41;100.00;64797.69;5090490;28;20208;-58
2023/06/08 04:46:42;;;;;;;10.05;4.40;;;;;;;17.72;93.70;64836.41;5090563;28;20236;-57
2023/06/08 04:49:09;;;;;;;10.35;4.32;;;;;;;17.49;97.56;64806.53;5090308;28;20273;-57
2023/06/08 04:51:39;;;;;;;8.50;4.95;;;;;;;17.44;100.00;64805.53;5090490;28;20210;-58
2023/06/08 04:54:05;;;;;;;10.80;4.85;;;;;;;17.49;100.00;64806.00;5090812;28;20223;-58
2023/06/08 04:56:33;;;;;;;11.95;5.95;;;;;;;17.79;93.54;64841.59;5090373;28;20224;-60
2023/06/08 04:58:59;;;;;;;10.38;6.05;;;;;;;17.82;93.87;64844.91;5090486;28;20236;-61
2023/06/08 05:01:25;;;;;;;8.57;4.82;;;;;;;17.80;100.00;64842.13;5090225;28;20742;-63
2023/06/08 05:03:50;;;;;;;21.95;6.55;;;;;;;17.96;100.00;64860.34;5090411;28;20216;-62
2023/06/08 05:06:16;;;;;;;12.00;5.53;;;;;;;18.05;94.19;64872.81;5090145;28;20203;-62
2023/06/08 05:08:41;;;;;;;10.48;5.50;;;;;;;18.23;91.63;64890.13;5090408;28;20216;-58
2023/06/08 05:11:08;;;;;;;8.43;4.75;;;;;;;18.20;88.95;64884.25;5089901;28;20216;-58
2023/06/08 05:13:33;;;;;;;10.07;5.32;;;;;;;17.89;95.56;64852.06;5090093;28;20606;-61
2023/06/08 05:15:59;;;;;;;14.75;5.68;;;;;;;17.84;99.62;64847.09;5090166;28;20199;-61
2023/06/08 05:18:25;;;;;;;8.25;4.47;;;;;;;18.16;100.00;64879.28;5090327;28;20211;-61
2023/06/08 05:20:50;;;;;;;11.07;5.65;;;;;;;18.25;100.00;64891.75;5090031;28;20200;-62
2023/06/08 05:23:16;;;;;;;8.00;4.03;;;;;;;18.33;91.29;64901.13;5090128;28;20211;-61
2023/06/08 05:25:41;;;;;;;13.45;4.22;;;;;;;18.31;99.36;64896.38;5071897;28;20646;-62
2023/06/08 05:28:07;;;;;;;6.20;3.63;;;;;;;18.40;87.46;64908.84;5073065;28;20683;-57
2023/06/08 05:30:32;;;;;;;7.82;3.72;;;;;;;18.33;86.06;64901.13;5093377;28;20265;-57
2023/06/08 05:33:00;;;;;;;7.95;4.22;;;;;;;18.17;87.44;64880.38;5093526;28;20198;-58
2023/06/08 05:35:26;;;;;;;11.55;3.55;;;;;;;17.95;88.69;64856.69;5093624;28;20309;-58
2023/06/08 05:37:52;;;;;;;14.15;6.32;;;;;;;17.96;100.00;64855.22;5093523;28;20287;-57
2023/06/08 05:40:18;;;;;;;7.43;3.70;;;;;;;18.60;98.20;64927.84;5093128;28;20745;-57
2023/06/08 05:42:43;;;;;;;9.10;3.80;;;;;;;18.73;99.76;64946.72;5093081;28;20291;-58
2023/06/08 05:45:09;;;;;;;6.38;3.97;;;;;;;18.85;98.94;64957.41;5093195;28;20236;-57
2023/06/08 05:47:34;;;;;;;9.13;3.70;;;;;;;18.99;82.82;64970.31;5093248;28;20743;-58
2023/06/08 05:50:00;;;;;;;6.78;3.92;;;;;;;18.75;82.49;64946.94;5092864;28;20215;-59
2023/06/08 05:52:25;;;;;;;8.05;4.00;;;;;;;18.29;85.21;64893.63;5092751;28;20200;-61
2023/06/08 05:54:51;;;;;;;10.73;3.17;;;;;;;18.18;84.66;64886.59;5091011;28;20200;-60
2023/06/08 05:57:16;;;;;;;5.30;3.05;;;;;;;17.84;87.46;64846.53;5091914;28;20223;-61
2023/06/08 05:59:42;;;;;;;10.38;3.75;;;;;;;17.59;88.88;64819.56;5093111;28;20208;-62
2023/06/08 06:02:07;;;;;;;10.18;3.58;;;;;;;18.11;100.00;64876.31;5092531;28;20196;-61
2023/06/08 06:04:34;;;;;;;6.85;3.88;;;;;;;18.30;97.28;64897.81;5091795;28;20843;-63
2023/06/08 06:07:00;;;;;;;10.10;3.53;;;;;;;18.94;99.15;64967.91;5072992;28;20257;-62
2023/06/08 06:09:25;;;;;;;6.30;4.00;;;;;;;19.40;96.82;65015.59;5091987;28;20236;-61
2023/06/08 06:11:51;;;;;;;7.03;3.50;;;;;;;20.05;92.88;65089.94;5092866;28;20641;-63
2023/06/08 06:14:16;;;;;;;8.30;3.72;;;;;;;20.25;84.99;65110.94;5092888;28;20204;-62
2023/06/08 06:16:42;;;;;;;12.57;5.18;;;;;;;20.06;75.79;65088.47;5092132;28;20196;-61
2023/06/08 06:19:08;;;;;;;11.57;4.95;;;;;;;19.92;77.92;65073.00;5092585;28;20208;-62
2023/06/08 06:21:34;;;;;;;7.47;4.00;;;;;;;19.58;84.75;65034.91;5092511;28;20211;-61
2023/06/08 06:23:59;;;;;;;12.32;4.50;;;;;;;19.76;85.18;65057.34;5092844;28;20218;-61
2023/06/08 06:26:25;;;;;;;8.95;4.50;;;;;;;19.90;82.32;65070.78;5092422;28;20275;-61
2023/06/08 06:28:51;;;;;;;5.82;3.78;;;;;;;20.24;81.57;65109.84;5092596;28;20295;-61
2023/06/08 06:31:16;;;;;;;6.90;3.83;;;;;;;20.74;81.64;65163.09;5092405;28;20688;-62
2023/06/08 06:33:42;;;;;;;13.68;5.55;;;;;;;20.93;74.46;65186.66;5092733;28;20262;-62
2023/06/08 06:36:07;;;;;;;10.45;4.93;;;;;;;20.83;74.06;65173.03;5092444;28;20686;-62
2023/06/08 06:38:33;;;;;;;10.45;4.30;;;;;;;20.40;70.73;65124.97;5091931;28;20678;-64
2023/06/08 06:40:58;;;;;;;9.52;3.83;;;;;;;20.34;78.23;65118.88;5090889;28;20688;-62
2023/06/08 06:43:24;;;;;;;8.85;3.85;;;;;;;20.47;77.88;65132.69;5091545;28;20211;-61
2023/06/08 06:45:50;;;;;;;7.82;4.10;;;;;;;20.73;77.68;65164.53;5092423;28;20200;-59
2023/06/08 06:48:20;;;;;;;9.45;4.00;;;;;;;21.02;70.84;65190.94;5092458;28;20638;-61
2023/06/08 06:50:46;;;;;;;7.43;4.53;;;;;;;20.64;69.89;65151.47;5091137;28;20220;-61
2023/06/08 06:53:12;;;;;;;9.02;4.22;;;;;;;20.24;72.61;65107.81;5091905;28;20219;-61
2023/06/08 06:55:38;;;;;;;10.57;3.92;;;;;;;20.19;72.60;65104.28;5091871;28;20203;-63
2023/06/08 06:58:04;;;;;;;9.10;3.70;;;;;;;19.91;75.15;65071.91;5091971;28;20200;-61
2023/06/08 07:00:32;;;;;;;8.55;4.72;;;;;;;20.02;74.53;65086.59;5072788;28;20268;-61
2023/06/08 07:02:58;;;;;;;7.10;3.63;;;;;;;20.04;74.67;65085.69;5073607;28;20195;-61
2023/06/08 07:05:24;;;;;;;8.45;3.83;;;;;;;20.15;78.36;65097.31;5091787;28;20666;-62
2023/06/08 07:07:49;;;;;;;5.45;3.97;;;;;;;20.31;79.33;65117.56;5091844;28;20249;-62
2023/06/08 07:10:15;;;;;;;11.40;4.10;;;;;;;20.42;71.94;65130.25;5091436;28;20299;-62
2023/06/08 07:12:41;;;;;;;7.47;3.72;;;;;;;20.34;77.31;65118.34;5091668;28;20195;-63
2023/06/08 07:15:07;;;;;;;6.47;3.90;;;;;;;20.95;75.03;65187.75;5091157;28;20208;-63
2023/06/08 07:17:32;;;;;;;5.93;3.30;;;;;;;21.17;75.19;65212.66;5090654;28;20188;-62
2023/06/08 07:19:58;;;;;;;6.35;3.83;;;;;;;21.40;71.55;65238.09;5091054;28;20604;-61
2023/06/08 07:22:24;;;;;;;7.65;3.25;;;;;;;21.22;70.82;65215.06;5091493;28;20204;-58
2023/06/08 07:24:49;;;;;;;15.63;6.25;;;;;;;21.25;72.82;65221.50;5091673;28;20266;-58
2023/06/08 07:27:14;;;;;;;9.00;4.00;;;;;;;21.05;69.11;65196.81;5091581;28;20287;-58
2023/06/08 07:29:40;;;;;;;8.45;4.38;;;;;;;21.04;73.90;65197.72;5091291;28;20231;-59
2023/06/08 07:32:06;;;;;;;6.38;3.65;;;;;;;21.00;70.35;65193.84;5091300;28;20692;-58
2023/06/08 07:34:39;;;;;;;5.03;3.20;;;;;;;20.80;74.46;65169.72;5091303;28;20281;-57
2023/06/08 07:37:05;;;;;;;8.40;4.15;;;;;;;20.85;72.59;65175.25;5090199;28;20212;-59
2023/06/08 07:39:30;;;;;;;7.47;3.67;;;;;;;21.16;76.93;65208.97;5091812;28;20215;-59
2023/06/08 07:41:56;;;;;;;8.05;4.32;;;;;;;21.36;74.95;65230.53;5090972;28;20194;-59
2023/06/08 07:44:21;;;;;;;7.43;4.40;;;;;;;21.59;70.47;65259.09;5091330;28;20200;-60
2023/06/08 07:46:46;;;;;;;4.65;3.40;;;;;;;21.67;73.78;65262.28;5090641;28;20557;-60
2023/06/08 07:49:12;;;;;;;7.63;3.70;;;;;;;22.33;70.35;65337.34;5091043;28;20235;-60
2023/06/08 07:51:37;;;;;;;5.80;3.60;;;;;;;22.43;70.83;65350.97;5090221;28;20698;-60
2023/06/08 07:54:03;;;;;;;7.00;3.90;;;;;;;22.50;67.18;65356.16;5089973;28;20215;-59
2023/06/08 07:56:29;;;;;;;9.82;3.70;;;;;;;22.31;65.15;65335.69;5091146;28;20241;-60
2023/06/08 07:58:54;;;;;;;8.15;3.42;;;;;;;21.92;66.40;65295.06;5091205;28;20204;-60
2023/06/08 08:01:20;;;;;;;6.97;3.22;;;;;;;21.84;73.00;65283.09;5091126;28;20244;-61
2023/06/08 08:03:45;;;;;;;5.05;3.75;;;;;;;21.96;70.73;65298.97;5091212;28;20204;-60
2023/06/08 08:06:11;;;;;;;8.05;3.88;;;;;;;21.97;70.95;65294.94;5091017;28;20196;-60
2023/06/08 08:08:36;;;;;;;4.82;3.08;;;;;;;21.88;71.22;65288.09;5093309;22;20304;-60
2023/06/08 08:11:02;;;;;;;4.97;3.55;;;;;;;22.12;72.60;65311.53;5070529;28;20254;-60
2023/06/08 08:13:28;;;;;;;4.97;3.80;;;;;;;22.23;69.03;65321.13;5070814;28;20216;-60
2023/06/08 08:15:53;;;;;;;9.63;4.28;;;;;;;22.38;69.25;65342.88;5052634;28;20197;-60
2023/06/08 08:18:19;;;;;;;8.13;4.47;;;;;;;22.55;69.97;65357.09;5070668;28;20600;-60
2023/06/08 08:20:44;;;;;;;5.25;3.83;;;;;;;22.43;70.18;65348.97;5070478;28;20232;-60
2023/06/08 08:23:10;;;;;;;7.63;4.28;;;;;;;22.53;71.03;65359.47;5070645;28;20200;-60
2023/06/08 08:25:35;;;;;;;6.93;3.58;;;;;;;22.71;71.43;65378.88;5052446;28;20207;-58
2023/06/08 08:28:01;;;;;;;5.38;3.70;;;;;;;23.01;70.92;65412.09;5070409;28;20580;-61
2023/06/08 08:30:27;;;;;;;10.25;5.30;;;;;;;23.18;69.84;65430.94;5070489;28;20219;-60
2023/06/08 08:32:52;;;;;;;9.02;3.50;;;;;;;23.21;67.05;65434.25;5070548;28;20201;-59
2023/06/08 08:35:17;;;;;;;5.47;3.67;;;;;;;23.03;68.39;65414.31;5070244;28;20763;-59
2023/06/08 08:37:43;;;;;;;5.93;4.05;;;;;;;22.90;70.84;65399.91;5070522;28;20643;-60
2023/06/08 08:40:09;;;;;;;5.43;3.95;;;;;;;22.92;70.32;65402.69;5070214;28;20222;-62
2023/06/08 08:42:45;;;;;;;4.63;3.95;;;;;;;23.03;68.68;65412.28;5070532;28;20226;-60
2023/06/08 08:45:13;;;;;;;4.47;4.00;;;;;;;23.12;66.78;65424.84;5069975;28;20220;-60
2023/06/08 08:47:41;;;;;;;5.18;3.53;;;;;;;23.25;68.96;65439.22;5070277;28;20291;-60
2023/06/08 08:50:09;;;;;;;7.22;3.92;;;;;;;23.29;70.56;65443.66;5070037;28;20215;-57
2023/06/08 08:52:38;;;;;;;4.60;3.38;;;;;;;23.32;67.84;65446.47;5070231;28;20227;-57
2023/06/08 08:55:05;;;;;;;6.20;3.70;;;;;;;23.33;69.23;65450.69;5069685;28;20209;-59
2023/06/08 08:57:32;;;;;;;6.32;3.75;;;;;;;23.37;70.41;65448.88;5069342;28;20288;-58
2023/06/08 08:59:58;;;;;;;6.45;3.47;;;;;;;23.31;67.68;65442.78;5070020;28;20212;-59
2023/06/08 09:02:25;;;;;;;3.90;3.13;;;;;;;23.35;66.87;65444.66;5071652;28;20185;-62
2023/06/08 09:04:52;;;;;;;5.13;3.30;;;;;;;23.38;66.95;65452.56;5055729;28;20239;-62
2023/06/08 09:07:20;;;;;;;5.35;3.50;;;;;;;23.33;69.30;65447.59;5073680;28;20193;-62
2023/06/08 09:10:24;;;;;;;6.28;3.45;;;;;;;23.52;69.62;65468.63;5073151;28;20215;-64
2023/06/08 09:12:52;;;;;;;8.40;3.47;;;;;;;23.63;67.49;65477.69;5073511;28;20204;-64
2023/06/08 09:15:27;;;;;;;5.55;3.13;;;;;;;23.94;66.50;65512.03;5073403;28;20323;-63
2023/06/08 09:17:58;;;;;;;6.97;3.28;;;;;;;24.10;65.12;65532.38;5072784;28;20196;-63
2023/06/08 09:20:33;;;;;;;5.88;4.07;;;;;;;23.99;63.53;65520.72;5073237;28;20232;-61
2023/06/08 09:23:15;;;;;;;6.20;3.83;;;;;;;24.13;66.14;65536.25;5072070;28;20631;-60
2023/06/08 09:25:41;;;;;;;6.38;3.08;;;;;;;24.09;64.94;65529.25;5073422;28;20270;-60
2023/06/08 09:28:28;;;;;;;5.72;3.65;;;;;;;24.36;66.07;65558.09;5073500;28;20204;-60
2023/06/08 09:30:57;;;;;;;4.32;3.42;;;;;;;24.57;65.55;65583.94;5073128;28;20221;-60
2023/06/08 09:33:25;;;;;;;6.13;3.83;;;;;;;24.86;64.94;65616.69;5073395;28;20729;-59
2023/06/08 09:36:04;;;;;;;7.35;3.85;;;;;;;24.87;62.65;65614.66;5073076;28;20284;-60
2023/06/08 09:38:32;;;;;;;5.32;2.97;;;;;;;24.78;61.11;65604.69;5073293;28;20284;-60
2023/06/08 09:41:16;;;;;;;5.00;3.17;;;;;;;24.41;63.54;65566.75;5073354;28;20208;-60
2023/06/08 09:43:44;;;;;;;4.28;3.47;;;;;;;24.37;60.81;65561.75;5073175;28;20204;-60
2023/06/08 09:46:16;;;;;;;3.45;3.08;;;;;;;24.44;63.82;65566.94;5073118;28;20193;-60
2023/06/08 09:48:53;;;;;;;4.10;3.38;;;;;;;24.62;63.48;65590.06;5072416;28;20220;-62
2023/06/08 09:51:21;;;;;;;6.15;3.50;;;;;;;24.82;62.72;65609.13;5072874;28;20215;-60
2023/06/08 09:53:50;;;;;;;8.00;4.10;;;;;;;24.87;60.41;65617.78;5072623;28;20212;-60
2023/06/08 09:56:16;;;;;;;3.75;3.22;;;;;;;24.77;60.09;65604.13;5072738;28;20705;-56
2023/06/08 09:58:45;;;;;;;7.43;3.50;;;;;;;24.84;60.53;65611.91;5072614;28;20212;-57
2023/06/08 10:01:12;;;;;;;3.90;2.90;;;;;;;24.90;61.31;65623.16;5072656;28;20197;-58
2023/06/08 10:03:47;;;;;;;5.85;3.55;;;;;;;25.01;60.73;65632.22;5072666;28;20208;-57
2023/06/08 10:06:15;;;;;;;6.53;3.17;;;;;;;25.10;58.84;65642.75;5072676;28;20214;-60
2023/06/08 10:08:45;;;;;;;4.07;3.40;;;;;;;25.20;63.76;65653.31;5072639;28;20209;-58
2023/06/08 10:11:13;;;;;;;5.03;3.50;;;;;;;25.41;60.65;65674.06;5072331;28;20251;-60
2023/06/08 10:13:40;;;;;;;5.07;3.17;;;;;;;25.32;58.87;65664.03;5072009;28;20631;-60
2023/06/08 10:16:05;;;;;;;5.10;3.28;;;;;;;25.36;56.14;65671.06;5072504;28;20201;-60
2023/06/08 10:18:31;;;;;;;6.00;3.20;;;;;;;25.64;59.91;65702.72;5072749;28;20274;-58
2023/06/08 10:20:58;;;;;;;6.40;3.22;;;;;;;25.91;58.26;65729.56;5071209;28;20202;-58
2023/06/08 10:23:25;;;;;;;5.05;3.05;;;;;;;25.41;51.99;65674.06;5072152;28;20217;-58
2023/06/08 10:25:50;;;;;;;3.42;2.80;;;;;;;25.31;54.59;65665.53;5072444;28;20169;-58
2023/06/08 10:28:20;;;;;;;5.13;3.20;;;;;;;25.42;54.38;65675.72;5072459;28;20247;-62
2023/06/08 10:30:46;;;;;;;4.95;3.15;;;;;;;25.52;57.53;65688.84;5072475;28;20297;-59
2023/06/08 10:33:15;;;;;;;5.18;3.00;;;;;;;25.69;56.67;65707.72;5072203;28;20664;-60
2023/06/08 10:35:41;;;;;;;6.15;3.28;;;;;;;25.92;57.06;65733.25;5072293;28;20235;-60
2023/06/08 10:38:15;;;;;;;5.55;2.78;;;;;;;25.77;55.80;65716.59;5072106;28;20730;-58
2023/06/08 10:40:42;;;;;;;3.40;2.70;;;;;;;25.98;56.75;65734.75;5072256;28;20276;-58
2023/06/08 10:43:08;;;;;;;4.22;2.80;;;;;;;26.10;56.07;65752.72;5072300;28;20235;-57
2023/06/08 10:45:36;;;;;;;3.00;2.67;;;;;;;26.20;51.67;65764.38;5072198;28;20235;-58
2023/06/08 10:48:10;;;;;;;3.05;2.72;;;;;;;26.18;51.79;65759.03;5072303;28;20295;-57
2023/06/08 10:50:37;;;;;;;4.72;2.90;;;;;;;26.32;52.55;65774.56;5071747;28;20201;-58
2023/06/08 10:53:03;;;;;;;3.80;3.03;;;;;;;26.47;50.63;65791.22;5072079;28;20232;-59
2023/06/08 10:55:29;;;;;;;5.43;2.72;;;;;;;26.95;52.14;65844.56;5071376;28;20201;-60
2023/06/08 10:58:05;;;;;;;4.07;2.75;;;;;;;27.25;48.36;65877.94;5072048;28;20285;-60
2023/06/08 11:00:32;;;;;;;3.10;2.17;;;;;;;27.49;46.63;65906.13;5071380;28;20188;-60
2023/06/08 11:03:04;;;;;;;2.97;2.63;;;;;;;27.60;46.77;65916.31;5071632;28;20293;-60
2023/06/08 11:05:34;;;;;;;2.88;2.60;;;;;;;27.67;48.74;65926.69;5071429;28;20242;-60
2023/06/08 11:08:00;;;;;;;2.72;2.38;;;;;;;27.94;48.66;65956.16;5071095;28;20208;-60
2023/06/08 11:10:27;;;;;;;3.72;2.67;;;;;;;27.91;48.84;65950.22;5071682;28;20209;-62
2023/06/08 11:12:53;;;;;;;2.28;2.08;;;;;;;27.68;45.46;65925.19;5071647;28;20296;-58
2023/06/08 11:15:19;;;;;;;2.60;2.38;;;;;;;27.78;43.75;65936.31;5071522;28;20235;-58
2023/06/08 11:17:56;;;;;;;3.08;2.88;;;;;;;27.89;47.66;65948.56;5071480;28;20208;-63
2023/06/08 11:20:28;;;;;;;2.75;2.53;;;;;;;27.88;48.12;65946.88;5071452;28;20208;-57
2023/06/08 11:22:54;;;;;;;4.05;2.90;;;;;;;28.10;45.97;65973.97;5071413;28;20200;-59
2023/06/08 11:25:24;;;;;;;2.78;2.30;;;;;;;28.20;45.47;65980.47;5071219;28;20265;-58
2023/06/08 11:27:53;;;;;;;3.00;2.70;;;;;;;28.38;46.12;66002.00;5071437;28;20250;-58
2023/06/08 11:30:19;;;;;;;2.92;2.40;;;;;;;28.43;44.37;66008.09;5071303;28;20217;-59
2023/06/08 11:32:47;;;;;;;3.33;2.40;;;;;;;28.43;43.60;66004.94;5071448;28;20770;-58